Time;durP1;ratioP1;P1;durP2;ratioP2;P2;SDS_P1;SDS_P2;PMS_P1;PMS_P2;Temp;Humidity;BMP_temperature;BMP_pressure;BME280_temperature;BME280_humidity;BME280_pressure;Samples;Min_cycle;Max_cycle;Signal;HPM_P1;HPM_P2
2022/04/26 03:38:04;;;;;;;17.65;7.20;;;6.80;99.90;;;;;;4891403;29;20044;-75
2022/04/26 03:40:29;;;;;;;26.20;8.02;;;6.80;99.90;;;;;;4907365;29;20144;-75
2022/04/26 03:42:55;;;;;;;21.02;7.53;;;6.90;99.90;;;;;;4889232;29;20127;-76
2022/04/26 03:45:21;;;;;;;22.92;8.07;;;6.80;99.90;;;;;;4904326;29;20040;-74
2022/04/26 03:47:47;;;;;;;16.17;6.28;;;6.80;99.90;;;;;;4904769;29;20049;-74
2022/04/26 03:50:12;;;;;;;24.67;7.28;;;7.00;99.90;;;;;;4905367;29;20112;-76
2022/04/26 03:52:40;;;;;;;25.63;8.15;;;7.10;99.90;;;;;;4888187;29;20055;-74
2022/04/26 03:55:07;;;;;;;20.42;5.72;;;6.80;99.90;;;;;;4906100;29;20047;-77
2022/04/26 03:57:33;;;;;;;22.58;6.32;;;6.90;99.90;;;;;;4906120;29;20059;-76
2022/04/26 03:59:58;;;;;;;19.83;6.72;;;6.90;99.90;;;;;;4906031;29;20041;-74
2022/04/26 04:02:24;;;;;;;21.45;6.38;;;6.80;99.90;;;;;;4889260;29;20343;-75
2022/04/26 04:04:50;;;;;;;19.35;7.32;;;6.90;99.90;;;;;;4888838;29;20165;-77
2022/04/26 04:07:15;;;;;;;22.73;6.53;;;6.90;99.90;;;;;;4889347;29;20044;-75
2022/04/26 04:09:41;;;;;;;18.90;6.55;;;6.80;99.90;;;;;;4889332;29;20127;-76
2022/04/26 04:12:07;;;;;;;18.58;6.65;;;6.80;99.90;;;;;;4905434;29;20040;-74
2022/04/26 04:14:33;;;;;;;20.30;6.43;;;7.00;99.90;;;;;;4888995;29;20056;-76
2022/04/26 04:17:11;;;;;;;19.60;6.20;;;6.90;99.90;;;;;;4905396;29;20036;-74
2022/04/26 04:19:36;;;;;;;13.18;5.82;;;6.90;99.90;;;;;;4907279;29;20077;-75
2022/04/26 04:22:02;;;;;;;15.45;6.75;;;6.90;99.90;;;;;;4906690;29;20048;-75
2022/04/26 04:24:28;;;;;;;19.25;5.28;;;7.00;99.90;;;;;;4906857;29;20048;-75
2022/04/26 04:26:55;;;;;;;17.52;5.32;;;7.00;99.90;;;;;;4905989;29;20044;-76
2022/04/26 04:29:20;;;;;;;16.70;5.55;;;7.00;99.90;;;;;;4907031;29;20096;-76
2022/04/26 04:31:46;;;;;;;15.10;5.95;;;7.00;99.90;;;;;;4906920;29;20100;-76
2022/04/26 04:34:11;;;;;;;22.90;5.50;;;6.90;99.90;;;;;;4905513;29;20427;-74
2022/04/26 04:36:37;;;;;;;17.65;5.25;;;6.70;99.90;;;;;;4908869;29;20124;-75
2022/04/26 04:39:04;;;;;;;22.35;6.43;;;6.90;99.90;;;;;;4911277;29;20439;-75
2022/04/26 04:41:35;;;;;;;18.40;6.20;;;7.00;99.90;;;;;;4910961;29;20100;-76
2022/04/26 04:44:02;;;;;;;15.90;5.78;;;7.10;99.90;;;;;;4911224;29;20052;-75
2022/04/26 04:46:28;;;;;;;17.02;5.50;;;7.00;99.90;;;;;;4910966;29;20490;-74
2022/04/26 04:48:54;;;;;;;14.38;5.32;;;7.50;99.90;;;;;;4910630;29;20438;-75
2022/04/26 04:51:19;;;;;;;20.23;6.00;;;6.80;99.90;;;;;;4911016;29;20096;-75
2022/04/26 04:53:45;;;;;;;15.77;6.05;;;6.90;99.90;;;;;;4909410;29;20418;-76
2022/04/26 04:56:12;;;;;;;18.98;6.50;;;6.80;99.90;;;;;;4893715;29;20053;-76
2022/04/26 04:58:38;;;;;;;18.52;5.85;;;6.90;99.90;;;;;;4911027;29;20072;-75
2022/04/26 05:01:04;;;;;;;16.90;5.80;;;6.90;99.90;;;;;;4910820;29;20048;-75
2022/04/26 05:03:29;;;;;;;21.00;5.15;;;7.00;99.90;;;;;;4911290;29;20453;-74
2022/04/26 05:05:55;;;;;;;14.05;4.70;;;6.50;99.90;;;;;;4910293;29;20434;-75
2022/04/26 05:08:20;;;;;;;18.17;5.35;;;6.90;99.90;;;;;;4908121;29;20048;-76
2022/04/26 05:10:46;;;;;;;20.65;6.40;;;7.10;99.90;;;;;;4910105;29;20040;-75
2022/04/26 05:13:12;;;;;;;25.90;6.38;;;6.80;99.90;;;;;;4910091;29;20045;-76
2022/04/26 05:15:38;;;;;;;16.23;5.18;;;7.20;99.90;;;;;;4910529;29;20056;-74
2022/04/26 05:18:06;;;;;;;15.23;5.55;;;6.90;99.90;;;;;;4908557;29;20068;-76
2022/04/26 05:20:32;;;;;;;13.65;4.82;;;;;;;;;;4909854;29;20076;-74
2022/04/26 05:25:45;;;;;;;15.82;4.85;;;;;;;;;;4911692;29;20339;-73
2022/04/26 05:28:11;;;;;;;13.00;4.53;;;;;;;;;;4911042;29;20041;-75
2022/04/26 05:30:37;;;;;;;17.30;4.95;;;;;;;;;;4911066;29;20076;-75
2022/04/26 05:33:02;;;;;;;13.25;4.82;;;7.70;99.90;;;;;;4893183;29;20056;-74
2022/04/26 05:35:28;;;;;;;14.80;4.93;;;7.70;99.90;;;;;;4893411;29;20044;-76
2022/04/26 05:37:54;;;;;;;16.80;5.20;;;;;;;;;;4910628;29;20044;-77
2022/04/26 05:40:20;;;;;;;15.27;5.10;;;;;;;;;;4910486;29;20045;-74
2022/04/26 05:42:46;;;;;;;19.92;6.07;;;;;;;;;;4879107;29;20063;-74
2022/04/26 05:45:12;;;;;;;13.98;5.25;;;7.90;99.90;;;;;;4911556;29;20068;-74
2022/04/26 05:47:44;;;;;;;13.05;5.35;;;7.90;99.90;;;;;;4893873;29;20048;-77
2022/04/26 05:50:11;;;;;;;16.13;4.93;;;7.90;99.90;;;;;;4910639;29;20104;-74
2022/04/26 05:52:37;;;;;;;13.93;4.60;;;8.10;99.90;;;;;;4911277;29;20036;-74
2022/04/26 05:55:04;;;;;;;16.05;5.25;;;8.10;99.90;;;;;;4910002;29;20134;-76
2022/04/26 05:57:30;;;;;;;19.17;5.90;;;8.10;99.90;;;;;;4911240;29;20037;-76
2022/04/26 05:59:56;;;;;;;20.23;4.95;;;8.30;99.90;;;;;;4910240;29;20044;-77
2022/04/26 06:02:22;;;;;;;16.83;5.10;;;;;;;;;;4911159;29;20040;-77
2022/04/26 06:04:48;;;;;;;12.85;3.95;;;8.30;99.90;;;;;;4895550;29;20469;-76
2022/04/26 06:07:14;;;;;;;12.65;4.20;;;8.30;99.90;;;;;;4912153;29;20055;-75
2022/04/26 06:09:40;;;;;;;20.42;5.50;;;;;;;;;;4912046;29;20056;-74
2022/04/26 06:12:07;;;;;;;10.63;4.43;;;;;;;;;;4895870;29;20450;-76
2022/04/26 06:14:33;;;;;;;16.88;4.55;;;;;;;;;;4912973;29;20040;-74
2022/04/26 06:16:58;;;;;;;12.05;4.10;;;8.90;99.90;;;;;;4913249;29;20077;-75
2022/04/26 06:19:24;;;;;;;14.45;3.63;;;8.60;99.90;;;;;;4911318;29;20053;-75
2022/04/26 06:21:50;;;;;;;15.27;3.42;;;8.70;99.90;;;;;;4895237;29;20048;-74
2022/04/26 06:24:15;;;;;;;14.07;3.58;;;8.70;99.90;;;;;;4909529;29;20048;-76
2022/04/26 06:26:41;;;;;;;11.20;4.63;;;8.90;99.90;;;;;;4912263;29;20053;-76
2022/04/26 06:29:06;;;;;;;13.93;4.13;;;9.00;99.90;;;;;;4896152;29;20056;-74
2022/04/26 06:31:32;;;;;;;13.30;3.42;;;9.10;99.90;;;;;;4912668;29;20044;-75
2022/04/26 06:33:58;;;;;;;13.13;4.03;;;9.20;99.90;;;;;;4910539;29;20075;-74
2022/04/26 06:36:23;;;;;;;12.27;3.47;;;9.40;99.90;;;;;;4896266;29;20045;-76
2022/04/26 06:38:49;;;;;;;14.77;3.63;;;9.50;99.90;;;;;;4895920;29;20064;-75
2022/04/26 06:41:15;;;;;;;8.20;3.03;;;9.70;99.90;;;;;;4913462;29;20048;-74
2022/04/26 06:43:41;;;;;;;13.43;3.45;;;9.40;99.90;;;;;;4895835;29;20049;-75
2022/04/26 06:46:06;;;;;;;11.20;3.08;;;9.90;99.90;;;;;;4896756;29;20051;-73
2022/04/26 06:48:32;;;;;;;14.63;3.38;;;9.90;99.90;;;;;;4914353;29;20041;-74
2022/04/26 06:50:58;;;;;;;9.93;3.00;;;10.00;99.90;;;;;;4913097;29;20040;-76
2022/04/26 06:53:23;;;;;;;13.93;3.55;;;10.00;99.90;;;;;;4912701;29;20067;-75
2022/04/26 06:55:49;;;;;;;10.52;3.13;;;10.20;99.90;;;;;;4897718;29;20099;-74
2022/04/26 06:58:15;;;;;;;13.10;3.20;;;10.40;99.90;;;;;;4912919;29;20049;-75
2022/04/26 07:00:41;;;;;;;11.23;3.15;;;10.30;99.90;;;;;;4914814;29;20025;-77
2022/04/26 07:03:07;;;;;;;11.75;4.20;;;10.30;99.90;;;;;;4914385;29;20043;-76
2022/04/26 07:05:32;;;;;;;9.30;2.92;;;10.30;99.90;;;;;;4898090;29;20059;-75
2022/04/26 07:07:58;;;;;;;14.80;3.92;;;10.30;99.90;;;;;;4915402;29;20052;-74
2022/04/26 07:10:24;;;;;;;10.85;2.95;;;10.30;99.90;;;;;;4915121;29;20056;-76
2022/04/26 07:12:50;;;;;;;8.45;2.78;;;10.40;99.90;;;;;;4914465;29;20037;-76
2022/04/26 07:15:18;;;;;;;9.85;3.03;;;10.40;99.90;;;;;;4913726;29;20037;-75
2022/04/26 07:17:43;;;;;;;12.88;3.05;;;10.50;99.90;;;;;;4866804;29;20052;-75
2022/04/26 07:20:10;;;;;;;14.30;3.25;;;;;;;;;;4897410;29;20059;-73
2022/04/26 07:22:36;;;;;;;9.07;2.92;;;10.60;99.90;;;;;;4914288;29;20049;-74
2022/04/26 07:25:06;;;;;;;10.07;3.22;;;10.70;99.90;;;;;;4914986;29;20044;-75
2022/04/26 07:27:32;;;;;;;9.80;2.95;;;11.00;99.90;;;;;;4911932;29;20048;-74
2022/04/26 07:29:58;;;;;;;11.82;3.55;;;11.10;99.90;;;;;;4914059;29;20040;-74
2022/04/26 07:35:20;;;;;;;;;;;11.40;99.90;;;;;;4916337;29;20057;-74
2022/04/26 07:37:45;;;;;;;13.00;3.40;;;11.40;99.90;;;;;;4897508;29;20203;-75
2022/04/26 07:40:11;;;;;;;9.18;2.92;;;11.30;99.90;;;;;;4915395;29;20083;-73
2022/04/26 07:42:37;;;;;;;10.88;3.30;;;11.40;99.90;;;;;;4900435;29;20076;-75
2022/04/26 07:45:05;;;;;;;7.90;2.90;;;11.40;99.90;;;;;;4915771;29;20049;-75
2022/04/26 07:47:31;;;;;;;14.15;3.13;;;;;;;;;;4917311;29;20029;-73
2022/04/26 07:49:58;;;;;;;12.68;3.95;;;11.40;99.90;;;;;;4916736;29;20060;-74
2022/04/26 07:52:24;;;;;;;10.75;3.85;;;11.40;99.90;;;;;;4900478;29;20051;-75
2022/04/26 07:54:50;;;;;;;10.43;3.75;;;11.30;99.90;;;;;;4898975;29;20045;-75
2022/04/26 07:57:16;;;;;;;13.05;3.78;;;11.20;99.90;;;;;;4912734;29;20052;-75
2022/04/26 07:59:42;;;;;;;8.85;2.78;;;11.30;99.90;;;;;;4912833;29;20048;-74
2022/04/26 08:02:09;;;;;;;7.60;3.10;;;;;;;;;;4916876;29;20036;-75
2022/04/26 08:04:34;;;;;;;9.98;2.90;;;12.10;99.90;;;;;;4900224;29;20052;-74
2022/04/26 08:07:00;;;;;;;7.53;3.53;;;12.40;99.90;;;;;;4885639;29;20052;-75
2022/04/26 08:09:26;;;;;;;10.52;2.78;;;12.50;99.90;;;;;;4885277;29;20055;-75
2022/04/26 08:11:52;;;;;;;7.68;3.20;;;;;;;;;;4915571;29;20085;-75
2022/04/26 08:14:20;;;;;;;11.57;3.10;;;12.10;99.90;;;;;;4901209;29;20056;-75
2022/04/26 08:16:46;;;;;;;13.30;4.15;;;;;;;;;;4886660;29;20099;-74
2022/04/26 08:19:13;;;;;;;9.07;2.70;;;12.10;99.90;;;;;;4885549;29;20092;-75
2022/04/26 08:21:39;;;;;;;10.13;2.58;;;12.10;99.90;;;;;;4883817;29;20052;-75
2022/04/26 08:29:34;;;;;;;8.57;3.50;;;12.40;99.90;;;;;;4918851;29;20060;-75
2022/04/26 08:32:00;;;;;;;8.65;3.20;;;12.50;99.90;;;;;;4887625;29;20029;-75
2022/04/26 08:34:26;;;;;;;8.65;3.03;;;12.60;99.90;;;;;;4915138;29;20132;-75
2022/04/26 08:36:52;;;;;;;12.75;3.00;;;12.90;99.90;;;;;;4886269;29;20072;-74
2022/04/26 08:39:20;;;;;;;7.68;2.25;;;13.10;99.90;;;;;;4887550;29;20044;-73
2022/04/26 08:41:45;;;;;;;6.93;2.47;;;13.40;99.90;;;;;;4888774;29;20032;-75
2022/04/26 08:44:12;;;;;;;11.10;3.67;;;13.10;99.90;;;;;;4888615;29;20045;-74
2022/04/26 08:52:08;;;;;;;10.95;2.60;;;13.10;99.90;;;;;;4919949;29;20037;-73
2022/04/26 08:54:35;;;;;;;9.20;2.42;;;13.80;99.90;;;;;;4871818;29;20052;-75
2022/04/26 08:57:02;;;;;;;15.88;3.40;;;;;;;;;;4904364;29;20052;-75
2022/04/26 08:59:31;;;;;;;8.95;3.15;;;14.50;98.10;;;;;;4889257;29;20051;-75
2022/04/26 09:02:20;;;;;;;8.73;2.65;;;14.80;97.70;;;;;;4888719;29;20021;-76
2022/04/26 09:04:51;;;;;;;7.63;3.00;;;15.10;95.50;;;;;;5118734;23;20096;-74
2022/04/26 09:07:32;;;;;;;9.63;2.75;;;14.90;96.20;;;;;;4908150;29;20071;-75
2022/04/26 09:10:13;;;;;;;10.77;3.95;;;14.40;99.10;;;;;;4939453;29;20060;-76
2022/04/26 09:13:09;;;;;;;7.65;2.33;;;13.70;96.60;;;;;;4937617;29;20054;-75
2022/04/26 09:15:59;;;;;;;7.60;2.47;;;13.50;94.40;;;;;;4923452;29;20071;-75
2022/04/26 09:18:30;;;;;;;6.75;2.30;;;13.90;96.20;;;;;;4939802;29;20032;-76
2022/04/26 09:24:56;;;;;;;9.95;2.45;;;15.50;99.90;;;;;;4944496;29;20055;-75
2022/04/26 09:27:27;;;;;;;6.45;2.50;;;15.60;93.20;;;;;;4944507;29;20092;-75
2022/04/26 09:30:10;;;;;;;9.65;2.47;;;15.60;94.30;;;;;;4913233;29;20035;-75
2022/04/26 09:35:34;;;;;;;9.68;2.67;;;16.60;91.10;;;;;;5398627;23;20060;-73
2022/04/26 09:38:03;;;;;;;6.00;2.88;;;16.20;88.40;;;;;;4902893;29;20076;-74
2022/04/26 09:40:39;;;;;;;11.68;2.60;;;16.10;90.90;;;;;;5145580;23;20058;-75
2022/04/26 09:43:15;;;;;;;6.20;2.50;;;15.60;90.00;;;;;;4927597;29;20064;-75
2022/04/26 09:45:58;;;;;;;6.70;1.77;;;;;;;;;;4943805;29;20060;-76
2022/04/26 09:48:27;;;;;;;8.90;2.40;;;;;;;;;;4904686;29;20029;-74
2022/04/26 09:54:42;;;;;;;8.82;2.38;;;15.80;99.90;;;;;;4904874;29;20055;-81
2022/04/26 09:57:15;;;;;;;8.60;2.00;;;;;;;;;;4900607;29;20123;-80
2022/04/26 09:59:46;;;;;;;11.32;2.53;;;15.70;99.90;;;;;;4902509;29;20029;-80
2022/04/26 10:02:14;;;;;;;6.72;2.60;;;;;;;;;;4904082;29;20049;-80
2022/04/26 10:05:04;;;;;;;7.28;2.53;;;;;;;;;;4901233;29;20061;-81
2022/04/26 10:07:36;;;;;;;6.35;2.33;;;16.70;84.10;;;;;;4887172;29;20048;-83
2022/04/26 10:10:09;;;;;;;9.55;3.38;;;17.30;82.90;;;;;;4871730;29;20029;-78
2022/04/26 10:12:40;;;;;;;7.72;2.38;;;17.60;98.40;;;;;;4888136;29;20072;-77
2022/04/26 10:15:07;;;;;;;6.88;1.98;;;17.40;85.70;;;;;;4888447;29;20060;-80
2022/04/26 10:17:37;;;;;;;6.78;2.13;;;;;;;;;;4886623;29;20068;-81
2022/04/26 10:20:44;;;;;;;9.15;2.78;;;17.90;99.90;;;;;;4946048;29;20036;-76
2022/04/26 10:26:23;;;;;;;10.68;3.00;;;;;;;;;;5568369;23;20056;-77
2022/04/26 10:29:20;;;;;;;7.80;2.30;;;18.50;76.00;;;;;;4885657;29;20046;-75
2022/04/26 10:32:42;;;;;;;7.60;2.40;;;18.40;74.50;;;;;;5851223;23;20027;31
2022/04/26 10:52:53;;;;;;;5.15;1.98;;;19.70;70.20;;;;;;4948344;23;20041;-77
2022/04/26 10:55:39;;;;;;;5.20;1.88;;;19.20;68.90;;;;;;4923265;29;20036;-76
2022/04/26 10:58:28;;;;;;;4.70;1.70;;;19.40;68.00;;;;;;4922926;29;20032;-76
2022/04/26 11:19:13;;;;;;;5.68;2.15;;;20.50;54.40;;;;;;4923413;29;20076;-76
2022/04/26 11:38:39;;;;;;;9.13;2.60;;;20.90;60.60;;;;;;5582833;23;20090;-75
2022/04/26 11:41:58;;;;;;;7.60;2.13;;;22.70;57.20;;;;;;4904566;29;20060;-75
2022/04/26 12:27:36;;;;;;;5.30;1.70;;;21.90;54.50;;;;;;5984420;23;20058;-76
2022/04/26 12:43:36;;;;;;;5.28;1.80;;;22.30;48.00;;;;;;4864840;29;20038;-74
2022/04/26 12:55:28;;;;;;;5.35;2.42;;;22.60;50.10;;;;;;4783000;27;20072;-74
2022/04/26 13:09:15;;;;;;;7.50;1.48;;;21.70;49.80;;;;;;4924342;29;20040;-72
2022/04/26 13:12:03;;;;;;;7.18;2.08;;;21.40;53.00;;;;;;4864811;29;20112;-73
2022/04/26 13:15:00;;;;;;;6.33;2.13;;;22.00;49.80;;;;;;5761357;23;20853;-72
2022/04/26 13:42:12;;;;;;;9.05;2.25;;;;;;;;;;5904464;23;20039;-77
2022/04/26 13:50:46;;;;;;;6.85;2.38;;;24.60;45.00;;;;;;5249499;23;20060;-75
2022/04/26 13:54:11;;;;;;;4.90;1.73;;;24.50;45.20;;;;;;4922415;29;20029;-73
2022/04/26 14:05:46;;;;;;;5.43;2.10;;;24.80;44.20;;;;;;5647514;23;20116;-74
2022/04/26 14:30:20;;;;;;;5.53;2.22;;;24.40;42.60;;;;;;4942694;29;20025;-75
2022/04/26 14:33:07;;;;;;;5.65;1.65;;;24.80;53.80;;;;;;4961815;23;20056;-74
2022/04/26 14:36:04;;;;;;;7.63;2.00;;;23.50;42.50;;;;;;4891120;29;20037;-73
2022/04/26 14:39:28;;;;;;;6.40;1.95;;;23.80;41.40;;;;;;4911987;29;20054;-77
2022/04/26 14:42:40;;;;;;;4.18;1.98;;;23.80;41.80;;;;;;4924085;29;20028;-76
2022/04/26 14:45:50;;;;;;;7.63;2.35;;;23.30;42.60;;;;;;4900731;29;20056;-74
2022/04/26 14:48:33;;;;;;;6.55;1.77;;;23.40;41.80;;;;;;4858090;29;20033;-74
2022/04/26 15:26:03;;;;;;;5.78;1.90;;;26.90;66.70;;;;;;5032947;23;20060;-76
2022/04/26 15:43:57;;;;;;;7.05;2.03;;;19.70;47.10;;;;;;5873881;23;20015;-74
2022/04/26 15:46:56;;;;;;;4.90;1.90;;;19.20;46.30;;;;;;5383424;23;20047;-75
2022/04/26 15:49:53;;;;;;;8.10;1.77;;;20.50;44.50;;;;;;5848508;23;20059;-74
2022/04/26 16:04:00;;;;;;;7.30;2.35;;;19.30;45.70;;;;;;5694431;23;20048;-73
2022/04/26 16:06:40;;;;;;;8.18;2.20;;;19.40;46.30;;;;;;4856978;29;20045;-77
2022/04/26 16:29:54;;;;;;;6.60;2.53;;;17.80;49.20;;;;;;5904082;23;20035;-74
2022/04/26 16:38:51;;;;;;;6.30;1.92;;;16.90;52.90;;;;;;6000887;23;20027;-76
2022/04/26 16:47:17;;;;;;;9.48;2.40;;;16.20;53.60;;;;;;5179355;23;20045;-75
2022/04/26 16:50:12;;;;;;;4.57;2.30;;;16.10;53.20;;;;;;4880337;29;20040;-75
2022/04/26 16:55:21;;;;;;;7.82;2.38;;;16.20;52.80;;;;;;5012827;23;20056;-77
2022/04/26 16:57:57;;;;;;;5.50;2.08;;;16.20;52.00;;;;;;4901198;29;20107;-74
2022/04/26 17:00:49;;;;;;;9.98;2.35;;;15.60;53.20;;;;;;4863168;29;20083;-75
2022/04/26 17:03:47;;;;;;;12.13;3.05;;;15.80;53.40;;;;;;4852757;29;20068;-75
2022/04/26 17:06:18;;;;;;;8.00;2.42;;;14.50;54.40;;;;;;4849343;29;20062;-75
2022/04/26 17:08:53;;;;;;;7.78;2.10;;;14.60;55.10;;;;;;4851361;29;20026;-75
2022/04/26 17:14:07;;;;;;;8.13;2.75;;;13.70;57.80;;;;;;4864709;29;20049;-75
2022/04/26 17:16:39;;;;;;;10.00;3.63;;;13.70;58.20;;;;;;4849582;29;20050;-75
2022/04/26 17:19:17;;;;;;;8.10;2.25;;;13.50;59.10;;;;;;4864976;29;20106;-74
2022/04/26 17:21:47;;;;;;;8.43;2.47;;;13.20;61.10;;;;;;4848707;29;20060;-74
2022/04/26 17:27:55;;;;;;;6.63;2.13;;;12.80;63.70;;;;;;4863319;29;20135;-77
2022/04/26 17:30:24;;;;;;;7.10;2.25;;;;;;;;;;4848995;29;20093;-74
2022/04/26 17:32:59;;;;;;;9.35;2.70;;;;;;;;;;4863731;29;20046;-74
2022/04/26 17:35:30;;;;;;;9.98;2.60;;;;;;;;;;4861337;29;20048;-74
2022/04/26 17:37:57;;;;;;;7.78;2.88;;;;;;;;;;4890084;29;20120;-74
2022/04/26 17:41:00;;;;;;;12.32;4.55;;;12.50;67.70;;;;;;4920117;29;20043;-75
2022/04/26 17:43:26;;;;;;;9.25;2.65;;;12.20;71.70;;;;;;4903068;29;20051;-75
2022/04/26 17:46:01;;;;;;;13.25;3.13;;;12.30;72.30;;;;;;4903940;29;20055;-73
2022/04/26 17:48:28;;;;;;;11.82;3.03;;;12.20;73.80;;;;;;4890397;29;20032;-75
2022/04/26 17:51:00;;;;;;;9.82;2.80;;;12.10;75.80;;;;;;4907721;29;20028;-75
2022/04/26 17:56:28;;;;;;;13.65;3.50;;;11.80;80.60;;;;;;4905468;29;20044;-76
2022/04/26 17:58:54;;;;;;;13.30;2.88;;;12.70;82.80;;;;;;4904887;29;20036;-76
2022/04/26 18:01:19;;;;;;;8.48;2.80;;;12.00;84.70;;;;;;4890500;29;20051;-76
2022/04/26 18:03:46;;;;;;;7.90;2.78;;;12.00;81.80;;;;;;4885194;29;20048;-75
2022/04/26 18:06:11;;;;;;;9.25;3.35;;;11.90;83.10;;;;;;4888341;29;20104;-77
2022/04/26 18:08:38;;;;;;;10.50;3.33;;;11.80;84.60;;;;;;4888541;29;20425;-72
2022/04/26 18:11:28;;;;;;;9.43;3.53;;;11.60;89.30;;;;;;4904415;29;20052;-74
2022/04/26 18:13:58;;;;;;;7.80;2.97;;;11.70;90.50;;;;;;4889098;29;20051;-73
2022/04/26 18:16:24;;;;;;;10.43;3.53;;;11.70;90.20;;;;;;4889295;29;20090;-73
2022/04/26 18:18:50;;;;;;;17.98;3.83;;;11.70;91.30;;;;;;4887716;29;20079;-74
2022/04/26 18:21:19;;;;;;;10.90;3.78;;;11.70;91.70;;;;;;4904945;29;20036;-72
2022/04/26 18:23:46;;;;;;;8.50;2.97;;;12.30;92.50;;;;;;4889007;29;20064;-74
2022/04/26 18:26:18;;;;;;;9.80;3.80;;;11.70;92.20;;;;;;4889382;29;20147;-72
2022/04/26 18:28:57;;;;;;;7.97;3.25;;;11.70;93.40;;;;;;4903626;29;20045;-73
2022/04/26 18:31:36;;;;;;;9.80;3.72;;;11.70;93.70;;;;;;4885892;29;20049;-72
2022/04/26 18:34:02;;;;;;;9.40;3.10;;;11.50;94.30;;;;;;4903535;29;20046;-74
2022/04/26 18:36:30;;;;;;;14.13;3.70;;;11.50;94.60;;;;;;4888067;29;20442;-72
2022/04/26 18:38:57;;;;;;;9.13;3.40;;;11.30;95.80;;;;;;4904598;29;20068;-73
2022/04/26 18:42:14;;;;;;;11.40;3.63;;;11.30;96.50;;;;;;4887973;29;20525;-73
2022/04/26 18:44:40;;;;;;;8.90;3.00;;;11.00;97.60;;;;;;4888098;29;20055;-73
2022/04/26 18:47:06;;;;;;;10.05;3.40;;;11.00;97.20;;;;;;4901996;29;20049;-74
2022/04/26 18:49:35;;;;;;;8.55;3.22;;;10.90;97.10;;;;;;4902291;29;20071;-73
2022/04/26 18:52:00;;;;;;;10.52;3.42;;;10.80;97.30;;;;;;4901955;29;20053;-73
2022/04/26 18:54:35;;;;;;;9.82;3.17;;;10.80;97.20;;;;;;4901150;29;20132;-72
2022/04/26 18:57:04;;;;;;;10.85;4.43;;;10.70;97.40;;;;;;4902255;29;20052;-75
2022/04/26 18:59:32;;;;;;;10.02;3.28;;;10.60;97.70;;;;;;4901792;29;20040;-75
2022/04/26 19:01:58;;;;;;;8.77;3.00;;;10.40;98.10;;;;;;4898669;29;20415;-73
2022/04/26 19:04:25;;;;;;;10.65;3.00;;;10.30;98.10;;;;;;4885373;29;20112;-73
2022/04/26 19:06:51;;;;;;;11.77;3.58;;;10.20;98.00;;;;;;4899983;29;20064;-73
2022/04/26 19:09:16;;;;;;;9.20;3.45;;;10.20;97.90;;;;;;4915812;29;20408;-74
2022/04/26 19:14:39;;;;;;;10.60;2.95;;;10.00;98.30;;;;;;4912308;29;20044;-74
2022/04/26 19:17:05;;;;;;;8.27;2.65;;;9.90;98.40;;;;;;4914158;29;20048;-74
2022/04/26 19:19:30;;;;;;;7.43;3.17;;;9.90;98.60;;;;;;4899082;29;20055;-75
2022/04/26 19:21:56;;;;;;;10.57;3.45;;;9.80;98.60;;;;;;4914608;29;20037;-74
2022/04/26 19:24:24;;;;;;;11.95;2.67;;;9.70;98.60;;;;;;4915424;29;20051;-74
2022/04/26 19:26:50;;;;;;;10.25;2.65;;;9.80;98.70;;;;;;4883255;29;20052;-74
2022/04/26 19:29:16;;;;;;;14.65;3.80;;;9.60;99.00;;;;;;4896531;29;20048;-74
2022/04/26 19:31:41;;;;;;;8.60;3.70;;;9.60;99.10;;;;;;4896983;29;20063;-74
2022/04/26 19:34:07;;;;;;;11.40;3.03;;;9.40;99.90;;;;;;4914643;29;20071;-73
2022/04/26 19:36:33;;;;;;;12.13;3.75;;;9.40;99.40;;;;;;4914859;29;20028;-74
2022/04/26 19:38:59;;;;;;;8.18;3.05;;;9.40;99.80;;;;;;4915328;29;20037;-74
2022/04/26 19:41:24;;;;;;;9.90;3.20;;;9.30;99.90;;;;;;4914726;29;20049;-74
2022/04/26 19:43:50;;;;;;;16.98;3.85;;;9.30;99.90;;;;;;4896500;29;20052;-73
2022/04/26 19:46:16;;;;;;;8.52;3.40;;;9.20;99.90;;;;;;4913616;29;20048;-73
2022/04/26 19:48:41;;;;;;;9.55;3.67;;;9.10;99.90;;;;;;4913465;29;20131;-74
2022/04/26 19:51:25;;;;;;;11.00;4.10;;;9.10;99.90;;;;;;4913725;29;20045;-74
2022/04/26 19:53:52;;;;;;;10.65;4.93;;;9.10;99.90;;;;;;4913286;29;20070;-72
2022/04/26 19:56:18;;;;;;;13.02;5.68;;;9.00;99.90;;;;;;4897078;29;20060;-74
2022/04/26 19:58:45;;;;;;;14.35;5.45;;;9.10;99.90;;;;;;4897516;29;20461;-75
2022/04/26 20:01:12;;;;;;;12.57;3.55;;;9.40;99.90;;;;;;4912961;29;20062;-74
2022/04/26 20:03:38;;;;;;;13.13;3.70;;;9.40;99.90;;;;;;4913134;29;20055;-74
2022/04/26 20:06:04;;;;;;;13.27;4.25;;;9.10;99.90;;;;;;4913261;29;20045;-73
2022/04/26 20:08:29;;;;;;;13.70;4.45;;;8.90;99.90;;;;;;4913320;29;20040;-74
2022/04/26 20:10:57;;;;;;;11.65;4.40;;;8.90;99.90;;;;;;4911666;29;20092;-75
2022/04/26 20:13:29;;;;;;;17.50;7.32;;;8.90;99.90;;;;;;4895750;29;20040;-74
2022/04/26 20:15:55;;;;;;;15.52;6.10;;;8.80;99.90;;;;;;4913035;29;20044;-74
2022/04/26 20:18:21;;;;;;;11.35;5.00;;;8.80;99.90;;;;;;4912474;29;20050;-72
2022/04/26 20:20:46;;;;;;;10.90;4.47;;;8.80;99.90;;;;;;4912156;29;20040;-72
2022/04/26 20:23:12;;;;;;;10.02;4.57;;;9.00;99.90;;;;;;4913238;29;20040;-72
2022/04/26 20:31:07;;;;;;;14.65;6.35;;;8.80;99.90;;;;;;4913405;29;19920;-73
2022/04/26 20:33:32;;;;;;;13.27;5.32;;;8.80;99.90;;;;;;4896518;29;20116;-73
2022/04/26 20:35:58;;;;;;;13.77;6.00;;;8.80;99.90;;;;;;4914021;29;20077;-74
2022/04/26 20:38:24;;;;;;;13.95;5.40;;;8.80;99.90;;;;;;4912931;29;20048;-74
2022/04/26 20:40:51;;;;;;;13.90;6.35;;;8.80;99.90;;;;;;4915103;29;20041;-72
2022/04/26 20:43:17;;;;;;;13.80;6.35;;;8.70;99.90;;;;;;4896080;29;20060;-74
2022/04/26 20:45:42;;;;;;;11.13;4.63;;;8.80;99.90;;;;;;4894452;29;20068;-74
2022/04/26 20:48:08;;;;;;;9.30;5.40;;;8.80;99.90;;;;;;4911164;29;20068;-71
2022/04/26 20:50:34;;;;;;;14.45;5.97;;;8.70;99.90;;;;;;4911279;29;20120;-73
2022/04/26 20:53:02;;;;;;;14.18;5.47;;;8.70;99.90;;;;;;4894646;29;20049;-74
2022/04/26 20:55:28;;;;;;;19.45;7.90;;;8.70;99.90;;;;;;4912111;29;20139;-73
2022/04/26 20:57:53;;;;;;;14.85;8.60;;;8.70;99.90;;;;;;4893387;29;20064;-72
2022/04/26 21:00:19;;;;;;;19.08;8.30;;;8.80;99.90;;;;;;4909433;29;20109;-73
2022/04/26 21:02:45;;;;;;;14.82;6.65;;;8.80;99.90;;;;;;4911845;29;20044;-73
2022/04/26 21:05:10;;;;;;;22.40;7.07;;;8.80;99.90;;;;;;4912277;29;20041;-74
2022/04/26 21:07:36;;;;;;;13.55;6.25;;;8.90;99.90;;;;;;4912579;29;20055;-72
2022/04/26 21:10:02;;;;;;;16.70;5.57;;;8.90;99.90;;;;;;4894887;29;20056;-74
2022/04/26 21:12:28;;;;;;;14.10;4.95;;;8.90;99.90;;;;;;4894440;29;20056;-74
2022/04/26 21:14:53;;;;;;;11.57;5.25;;;8.70;99.90;;;;;;4893343;29;20128;-74
2022/04/26 21:17:19;;;;;;;10.02;5.10;;;9.00;99.90;;;;;;4912454;29;20064;-75
2022/04/26 21:19:45;;;;;;;9.55;4.82;;;8.90;99.90;;;;;;4915674;29;20077;-73
2022/04/26 21:22:10;;;;;;;8.88;4.25;;;8.90;99.90;;;;;;4916241;29;20028;-74
2022/04/26 21:24:36;;;;;;;11.68;4.50;;;8.80;99.90;;;;;;4915954;29;20462;-74
2022/04/26 21:27:07;;;;;;;12.55;4.88;;;8.80;99.90;;;;;;4916090;29;20538;-75
2022/04/26 21:29:33;;;;;;;10.63;4.55;;;8.70;99.90;;;;;;4916035;29;20043;-74
2022/04/26 21:31:59;;;;;;;13.77;4.38;;;8.60;99.90;;;;;;4897767;29;20033;-74
2022/04/26 21:34:24;;;;;;;10.50;4.82;;;8.50;99.90;;;;;;4911668;29;20042;-74
2022/04/26 21:36:50;;;;;;;12.38;5.25;;;8.50;99.90;;;;;;4913973;29;20047;-73
2022/04/26 21:39:16;;;;;;;11.70;4.70;;;8.40;99.90;;;;;;4897544;29;20111;-74
2022/04/26 21:41:47;;;;;;;11.10;4.82;;;8.30;99.90;;;;;;4914096;29;20072;-74
2022/04/26 21:44:12;;;;;;;13.52;4.28;;;8.30;99.90;;;;;;4897886;29;20049;-75
2022/04/26 21:46:38;;;;;;;12.25;4.65;;;8.20;99.90;;;;;;4914581;29;20069;-75
2022/04/26 21:49:05;;;;;;;14.05;5.35;;;8.10;99.90;;;;;;4913915;29;20076;-73
2022/04/26 21:51:34;;;;;;;14.40;5.28;;;8.00;99.90;;;;;;4914145;29;20044;-74
2022/04/26 21:54:01;;;;;;;10.43;4.45;;;7.70;99.90;;;;;;4911951;29;20068;-74
2022/04/26 21:56:28;;;;;;;10.93;4.32;;;8.20;99.90;;;;;;4912932;29;20055;-73
2022/04/26 21:58:55;;;;;;;13.90;5.00;;;7.80;99.90;;;;;;4913937;29;20052;-75
2022/04/26 22:01:22;;;;;;;14.23;4.95;;;7.70;99.90;;;;;;4913032;29;20386;-73
2022/04/26 22:03:48;;;;;;;9.27;4.50;;;7.60;99.90;;;;;;4912618;29;20048;-73
2022/04/26 22:06:14;;;;;;;11.07;4.65;;;7.70;99.90;;;;;;4912471;29;20083;-74
2022/04/26 22:08:40;;;;;;;13.40;4.80;;;;;;;;;;4910862;29;20040;-75
2022/04/26 22:11:06;;;;;;;11.18;4.10;;;;;;;;;;4912263;29;20044;-73
2022/04/26 22:13:35;;;;;;;15.32;4.93;;;7.70;99.90;;;;;;4911568;29;20044;-74
2022/04/26 22:16:01;;;;;;;10.85;5.07;;;;;;;;;;4895873;29;20052;-75
2022/04/26 22:18:27;;;;;;;12.82;4.88;;;;;;;;;;4910738;29;20073;-73
2022/04/26 22:20:53;;;;;;;10.80;5.25;;;;;;;;;;4912817;29;20041;-74
2022/04/26 22:23:18;;;;;;;10.85;5.60;;;6.50;99.90;;;;;;4912190;29;20048;-74
2022/04/26 22:25:44;;;;;;;14.40;5.63;;;7.90;99.90;;;;;;4912835;29;20449;-73